createdAt,value
2019-03-23T00:00:25.277Z,75.63
2019-03-23T00:05:31.965Z,80.43
2019-03-23T00:10:38.520Z,72.30
2019-03-23T00:15:45.238Z,65.63
2019-03-23T00:20:51.755Z,68.50
2019-03-23T00:25:58.329Z,70.13
2019-03-23T00:31:04.967Z,62.77
2019-03-23T00:36:11.659Z,66.60
2019-03-23T00:41:19.269Z,67.30
2019-03-23T00:46:25.794Z,60.87
2019-03-23T00:51:32.393Z,60.23
2019-03-23T00:56:40.105Z,58.60
2019-03-23T01:01:46.832Z,56.87
2019-03-23T01:06:53.533Z,51.70
2019-03-23T01:12:00.079Z,51.83
2019-03-23T01:17:06.689Z,52.73
2019-03-23T01:22:13.219Z,51.60
2019-03-23T01:27:19.815Z,51.20
2019-03-23T01:32:26.405Z,54.17
2019-03-23T01:37:32.968Z,50.07
2019-03-23T01:42:39.677Z,47.27
2019-03-23T01:47:46.270Z,48.77
2019-03-23T01:52:52.893Z,49.47
2019-03-23T01:57:59.461Z,53.50
2019-03-23T02:03:06.049Z,51.53
2019-03-23T02:08:12.646Z,50.47
2019-03-23T02:13:19.202Z,48.63
2019-03-23T02:18:25.828Z,53.97
2019-03-23T02:23:32.444Z,52.93
2019-03-23T02:28:39.049Z,53.33
2019-03-23T02:33:45.702Z,59.87
2019-03-23T02:38:52.392Z,57.23
2019-03-23T02:43:58.985Z,60.07
2019-03-23T02:49:05.567Z,60.17
2019-03-23T02:54:12.138Z,65.00
2019-03-23T02:59:18.716Z,62.70
2019-03-23T03:04:25.287Z,67.97
2019-03-23T03:09:31.789Z,67.40
2019-03-23T03:14:38.353Z,64.07
2019-03-23T03:19:44.929Z,67.83
2019-03-23T03:24:51.598Z,72.17
2019-03-23T03:29:58.286Z,64.53
2019-03-23T03:35:05.306Z,70.10
2019-03-23T03:40:12.198Z,71.97
2019-03-23T03:45:24.310Z,68.10
2019-03-23T03:50:30.798Z,67.43
2019-03-23T03:55:37.437Z,65.23
2019-03-23T04:00:44.038Z,66.87
2019-03-23T04:05:50.635Z,67.07
2019-03-23T04:10:57.305Z,64.87
2019-03-23T04:16:03.978Z,61.37
2019-03-23T04:21:10.499Z,62.90
2019-03-23T04:26:17.225Z,64.70
2019-03-23T04:31:23.765Z,60.30
2019-03-23T04:36:30.247Z,56.83
2019-03-23T04:41:36.964Z,52.67
2019-03-23T04:46:44.068Z,49.53
2019-03-23T04:51:50.653Z,48.60
2019-03-23T04:56:57.174Z,50.10
2019-03-23T05:02:04.042Z,50.80
2019-03-23T05:07:10.759Z,50.67
2019-03-23T05:12:17.403Z,52.47
2019-03-23T05:17:24.076Z,51.70
2019-03-23T05:22:30.726Z,53.37
2019-03-23T05:27:37.700Z,50.33
2019-03-23T05:32:45.957Z,50.10
2019-03-23T05:37:52.625Z,51.20
2019-03-23T05:42:59.253Z,52.47
2019-03-23T05:48:05.841Z,51.63
2019-03-23T05:53:12.349Z,50.47
2019-03-23T05:58:18.934Z,48.30
2019-03-23T06:03:25.553Z,50.40
2019-03-23T06:08:32.106Z,46.37
2019-03-23T06:13:38.759Z,47.23
2019-03-23T06:18:45.193Z,46.47
2019-03-23T06:23:51.673Z,44.80
2019-03-23T06:28:58.117Z,43.10
2019-03-23T06:34:04.687Z,44.33
2019-03-23T06:39:11.301Z,43.20
2019-03-23T06:44:18.467Z,45.00
2019-03-23T06:49:25.119Z,47.60
2019-03-23T06:54:31.693Z,45.20
2019-03-23T06:59:38.182Z,42.33
2019-03-23T07:04:44.798Z,45.53
2019-03-23T07:09:51.422Z,49.53
2019-03-23T07:14:57.937Z,45.37
2019-03-23T07:20:05.491Z,44.87
2019-03-23T07:25:12.318Z,47.83
2019-03-23T07:30:20.494Z,44.13
2019-03-23T07:35:27.068Z,46.57
2019-03-23T07:40:33.645Z,43.30
2019-03-23T07:45:40.217Z,43.03
2019-03-23T07:50:46.719Z,47.07
2019-03-23T07:55:53.214Z,45.93
2019-03-23T08:00:59.931Z,41.53
2019-03-23T08:06:06.361Z,43.10
2019-03-23T08:11:12.966Z,45.30
2019-03-23T08:16:19.569Z,48.93
2019-03-23T08:21:27.195Z,46.00
2019-03-23T08:26:33.646Z,41.70
2019-03-23T08:31:40.319Z,46.83
2019-03-23T08:36:46.904Z,42.73
2019-03-23T08:41:53.421Z,42.90
2019-03-23T08:47:00.088Z,39.80
2019-03-23T08:52:06.689Z,41.97
2019-03-23T08:57:13.394Z,40.77
2019-03-23T09:02:21.745Z,39.20
2019-03-23T09:07:28.451Z,35.83
2019-03-23T09:12:35.061Z,41.00
2019-03-23T09:17:41.622Z,34.63
2019-03-23T09:22:48.207Z,35.73
2019-03-23T09:27:54.676Z,38.13
2019-03-23T09:33:01.244Z,44.43
2019-03-23T09:38:07.764Z,42.93
2019-03-23T09:43:14.391Z,46.63
2019-03-23T09:48:21.030Z,42.00
2019-03-23T09:53:31.494Z,38.23
2019-03-23T09:58:41.153Z,37.00
2019-03-23T10:03:47.729Z,35.30
2019-03-23T10:08:54.347Z,37.77
2019-03-23T10:14:03.136Z,34.17
2019-03-23T10:19:10.265Z,33.40
2019-03-23T10:24:16.846Z,35.00
2019-03-23T10:29:23.515Z,33.77
2019-03-23T10:34:30.073Z,32.73
2019-03-23T10:39:37.119Z,27.70
2019-03-23T10:44:43.957Z,31.73
2019-03-23T10:49:50.516Z,30.77
2019-03-23T10:54:57.159Z,26.90
2019-03-23T11:00:03.994Z,25.87
2019-03-23T11:05:12.446Z,24.30
2019-03-23T11:10:19.762Z,22.33
2019-03-23T11:15:26.366Z,20.00
2019-03-23T11:20:33.092Z,18.33
2019-03-23T11:25:39.814Z,17.03
2019-03-23T11:30:46.469Z,17.60
2019-03-23T11:35:57.734Z,13.63
2019-03-23T11:41:01.462Z,18.53
2019-03-23T11:46:08.162Z,16.00
2019-03-23T11:51:14.876Z,15.60
2019-03-23T11:56:21.386Z,10.23
2019-03-23T12:01:28.139Z,14.07
2019-03-23T12:06:34.791Z,14.27
2019-03-23T12:11:41.449Z,26.53
2019-03-23T12:16:48.133Z,16.17
2019-03-23T12:21:54.677Z,15.20
2019-03-23T12:27:01.342Z,16.00
2019-03-23T12:32:07.954Z,17.83
2019-03-23T12:37:14.662Z,13.97
2019-03-23T12:42:21.089Z,12.47
2019-03-23T12:47:27.700Z,13.63
2019-03-23T12:52:34.294Z,15.40
2019-03-23T12:57:40.951Z,15.63
2019-03-23T13:02:47.706Z,14.97
2019-03-23T13:07:54.286Z,13.33
2019-03-23T13:13:00.889Z,11.23
2019-03-23T13:18:07.616Z,10.60
2019-03-23T13:23:14.235Z,11.57
2019-03-23T13:28:20.793Z,12.97
2019-03-23T13:33:27.649Z,8.23
2019-03-23T13:38:34.318Z,12.93
2019-03-23T13:43:40.856Z,11.27
2019-03-23T13:48:47.525Z,11.30
2019-03-23T13:53:54.129Z,8.37
2019-03-23T13:59:00.819Z,10.27
2019-03-23T14:04:07.370Z,9.20
2019-03-23T14:09:14.036Z,8.30
2019-03-23T14:14:20.552Z,10.90
2019-03-23T14:19:27.110Z,14.80
2019-03-23T14:24:33.762Z,13.97
2019-03-23T14:29:40.383Z,16.57
2019-03-23T14:34:46.795Z,17.07
2019-03-23T14:39:53.348Z,13.73
2019-03-23T14:44:59.990Z,19.53
2019-03-23T14:50:06.978Z,16.57
2019-03-23T14:55:13.737Z,17.07
2019-03-23T15:00:35.768Z,13.33
2019-03-23T15:05:42.353Z,17.53
2019-03-23T15:10:49.938Z,15.60
2019-03-23T15:15:56.656Z,18.50
2019-03-23T15:21:03.384Z,17.20
2019-03-23T15:26:09.963Z,22.17
2019-03-23T15:31:18.226Z,14.07
2019-03-23T15:36:24.719Z,15.27
2019-03-23T15:41:31.158Z,14.20
2019-03-23T15:46:37.877Z,14.10
2019-03-23T15:51:44.571Z,15.43
2019-03-23T15:56:51.149Z,16.60
2019-03-23T16:01:57.941Z,13.63
2019-03-23T16:07:04.890Z,13.70
2019-03-23T16:12:11.532Z,8.70
2019-03-23T16:17:18.058Z,12.40
2019-03-23T16:22:24.622Z,18.33
2019-03-23T16:27:31.446Z,14.33
2019-03-23T16:32:38.326Z,11.93
2019-03-23T16:37:45.013Z,14.17
2019-03-23T16:42:51.676Z,11.93
2019-03-23T16:47:59.243Z,14.50
2019-03-23T16:53:05.845Z,15.97
2019-03-23T16:58:16.266Z,18.37
2019-03-23T17:03:20.844Z,14.80
2019-03-23T17:08:27.393Z,14.50
2019-03-23T17:13:34.105Z,13.27
2019-03-23T17:18:40.742Z,14.97
2019-03-23T17:23:47.481Z,15.90
2019-03-23T17:28:54.167Z,12.87
2019-03-23T17:34:00.810Z,16.17
2019-03-23T17:39:07.946Z,17.17
2019-03-23T17:44:14.794Z,18.63
2019-03-23T17:49:21.490Z,14.63
2019-03-23T17:54:28.133Z,16.10
2019-03-23T17:59:35.633Z,17.40
2019-03-23T18:04:42.413Z,17.07
2019-03-23T18:09:50.260Z,14.13
2019-03-23T18:14:56.949Z,19.80
2019-03-23T18:20:03.711Z,17.83
2019-03-23T18:25:12.001Z,15.97
2019-03-23T18:30:46.608Z,15.03
2019-03-23T18:35:53.362Z,12.50
2019-03-23T18:41:00.066Z,15.50
2019-03-23T18:46:06.781Z,14.77
2019-03-23T18:51:13.429Z,14.23
2019-03-23T18:56:21.221Z,15.03
2019-03-23T19:01:27.842Z,22.10
2019-03-23T19:06:34.647Z,15.53
2019-03-23T19:11:41.393Z,15.40
2019-03-23T19:16:48.001Z,17.20
2019-03-23T19:21:57.074Z,15.87
2019-03-23T19:27:03.899Z,19.73
2019-03-23T19:32:10.673Z,18.93
2019-03-23T19:37:17.300Z,19.60
2019-03-23T19:42:24.017Z,19.40
2019-03-23T19:47:30.793Z,16.30
2019-03-23T19:52:37.493Z,14.20
2019-03-23T19:57:44.799Z,16.43
2019-03-23T20:02:51.463Z,16.80
2019-03-23T20:07:58.274Z,21.17
2019-03-23T20:13:04.985Z,15.83
2019-03-23T20:18:11.716Z,19.27
2019-03-23T20:23:18.515Z,18.17
2019-03-23T20:28:25.129Z,15.20
2019-03-23T20:33:31.990Z,17.57
2019-03-23T20:38:39.656Z,17.00
2019-03-23T20:43:46.712Z,19.10
2019-03-23T20:48:53.754Z,21.57
2019-03-23T20:54:01.121Z,18.77
2019-03-23T20:59:07.922Z,24.50
2019-03-23T21:04:16.843Z,18.77
2019-03-23T21:09:23.547Z,20.83
2019-03-23T21:14:30.251Z,19.97
2019-03-23T21:19:39.730Z,22.27
2019-03-23T21:24:48.984Z,20.33
2019-03-23T21:29:55.567Z,19.10
2019-03-23T21:35:02.354Z,16.17
2019-03-23T21:40:09.911Z,21.70
2019-03-23T21:45:16.686Z,19.50
2019-03-23T21:50:23.240Z,20.83
2019-03-23T21:55:30.144Z,17.60
2019-03-23T22:00:37.050Z,17.80
2019-03-23T22:05:43.854Z,20.40
2019-03-23T22:10:50.598Z,18.93
2019-03-23T22:15:57.245Z,21.63
2019-03-23T22:21:03.985Z,23.47
2019-03-23T22:26:10.750Z,22.73
2019-03-23T22:31:18.411Z,23.43
2019-03-23T22:36:25.197Z,21.13
2019-03-23T22:41:31.773Z,23.83
2019-03-23T22:46:38.385Z,21.60
2019-03-23T22:51:44.925Z,21.27
2019-03-23T22:56:51.813Z,18.20
2019-03-23T23:01:58.409Z,16.87
2019-03-23T23:07:05.228Z,19.10
2019-03-23T23:12:12.006Z,20.67
2019-03-23T23:17:20.288Z,20.77
2019-03-23T23:22:27.024Z,23.33
2019-03-23T23:27:33.730Z,25.10
2019-03-23T23:32:40.381Z,19.10
2019-03-23T23:37:47.013Z,20.37
2019-03-23T23:42:53.741Z,20.77
2019-03-23T23:48:00.276Z,23.03
2019-03-23T23:53:07.022Z,25.73
2019-03-23T23:58:13.537Z,19.77
